sensor_id;sensor_type;location;lat;lon;timestamp;P1;durP1;ratioP1;P2;durP2;ratioP2
48014;SDS011;33780;51.034;7.120;2023-06-10T00:02:14;5.95;;;4.03;;
48014;SDS011;33780;51.034;7.120;2023-06-10T00:04:41;6.75;;;3.88;;
48014;SDS011;33780;51.034;7.120;2023-06-10T00:07:07;6.80;;;4.00;;
48014;SDS011;33780;51.034;7.120;2023-06-10T00:09:33;5.85;;;4.20;;
48014;SDS011;33780;51.034;7.120;2023-06-10T00:12:05;6.78;;;4.15;;
48014;SDS011;33780;51.034;7.120;2023-06-10T00:14:31;8.77;;;4.60;;
48014;SDS011;33780;51.034;7.120;2023-06-10T00:16:57;6.07;;;3.90;;
48014;SDS011;33780;51.034;7.120;2023-06-10T00:19:22;6.95;;;4.63;;
48014;SDS011;33780;51.034;7.120;2023-06-10T00:21:54;6.82;;;4.20;;
48014;SDS011;33780;51.034;7.120;2023-06-10T00:24:20;6.95;;;4.22;;
48014;SDS011;33780;51.034;7.120;2023-06-10T00:26:45;7.05;;;4.03;;
48014;SDS011;33780;51.034;7.120;2023-06-10T00:29:11;6.70;;;4.20;;
48014;SDS011;33780;51.034;7.120;2023-06-10T00:31:37;7.93;;;4.00;;
48014;SDS011;33780;51.034;7.120;2023-06-10T00:34:02;5.78;;;3.78;;
48014;SDS011;33780;51.034;7.120;2023-06-10T00:36:28;7.05;;;4.38;;
48014;SDS011;33780;51.034;7.120;2023-06-10T00:38:54;8.25;;;4.30;;
48014;SDS011;33780;51.034;7.120;2023-06-10T00:41:20;4.93;;;3.58;;
48014;SDS011;33780;51.034;7.120;2023-06-10T00:43:45;8.85;;;4.20;;
48014;SDS011;33780;51.034;7.120;2023-06-10T00:46:11;6.85;;;4.05;;
48014;SDS011;33780;51.034;7.120;2023-06-10T00:48:37;6.22;;;4.05;;
48014;SDS011;33780;51.034;7.120;2023-06-10T00:51:04;7.72;;;3.85;;
48014;SDS011;33780;51.034;7.120;2023-06-10T00:53:30;5.90;;;4.05;;
48014;SDS011;33780;51.034;7.120;2023-06-10T00:55:56;6.38;;;4.05;;
48014;SDS011;33780;51.034;7.120;2023-06-10T00:58:22;5.75;;;4.07;;
48014;SDS011;33780;51.034;7.120;2023-06-10T01:00:49;9.52;;;4.35;;
48014;SDS011;33780;51.034;7.120;2023-06-10T01:03:14;5.72;;;3.95;;
48014;SDS011;33780;51.034;7.120;2023-06-10T01:05:42;5.68;;;3.97;;
48014;SDS011;33780;51.034;7.120;2023-06-10T01:08:23;6.40;;;4.00;;
48014;SDS011;33780;51.034;7.120;2023-06-10T01:10:59;7.10;;;4.50;;
48014;SDS011;33780;51.034;7.120;2023-06-10T01:13:26;7.35;;;4.38;;
48014;SDS011;33780;51.034;7.120;2023-06-10T01:15:54;5.90;;;4.03;;
48014;SDS011;33780;51.034;7.120;2023-06-10T01:18:21;6.63;;;4.10;;
48014;SDS011;33780;51.034;7.120;2023-06-10T01:20:46;6.90;;;4.28;;
48014;SDS011;33780;51.034;7.120;2023-06-10T01:23:13;8.02;;;4.10;;
48014;SDS011;33780;51.034;7.120;2023-06-10T01:25:47;6.53;;;4.25;;
48014;SDS011;33780;51.034;7.120;2023-06-10T01:28:19;7.25;;;4.10;;
48014;SDS011;33780;51.034;7.120;2023-06-10T01:30:55;6.35;;;4.20;;
48014;SDS011;33780;51.034;7.120;2023-06-10T01:33:37;7.40;;;4.18;;
48014;SDS011;33780;51.034;7.120;2023-06-10T01:36:06;6.40;;;4.30;;
48014;SDS011;33780;51.034;7.120;2023-06-10T01:38:32;7.80;;;4.25;;
48014;SDS011;33780;51.034;7.120;2023-06-10T01:41:01;5.70;;;3.72;;
48014;SDS011;33780;51.034;7.120;2023-06-10T01:43:28;7.30;;;3.90;;
48014;SDS011;33780;51.034;7.120;2023-06-10T01:45:53;5.95;;;3.90;;
48014;SDS011;33780;51.034;7.120;2023-06-10T01:48:18;6.03;;;4.10;;
48014;SDS011;33780;51.034;7.120;2023-06-10T01:50:44;5.88;;;4.00;;
48014;SDS011;33780;51.034;7.120;2023-06-10T01:53:09;6.90;;;4.30;;
48014;SDS011;33780;51.034;7.120;2023-06-10T01:55:35;5.18;;;3.72;;
48014;SDS011;33780;51.034;7.120;2023-06-10T01:58:00;9.65;;;4.45;;
48014;SDS011;33780;51.034;7.120;2023-06-10T02:00:25;6.53;;;3.90;;
48014;SDS011;33780;51.034;7.120;2023-06-10T02:02:50;5.20;;;3.42;;
48014;SDS011;33780;51.034;7.120;2023-06-10T02:05:16;5.55;;;3.63;;
48014;SDS011;33780;51.034;7.120;2023-06-10T02:07:41;6.18;;;4.00;;
48014;SDS011;33780;51.034;7.120;2023-06-10T02:10:07;7.22;;;4.20;;
48014;SDS011;33780;51.034;7.120;2023-06-10T02:12:33;7.85;;;4.43;;
48014;SDS011;33780;51.034;7.120;2023-06-10T02:14:58;5.57;;;3.60;;
48014;SDS011;33780;51.034;7.120;2023-06-10T02:17:23;7.20;;;3.88;;
48014;SDS011;33780;51.034;7.120;2023-06-10T02:19:49;6.68;;;4.07;;
48014;SDS011;33780;51.034;7.120;2023-06-10T02:22:19;6.53;;;3.92;;
48014;SDS011;33780;51.034;7.120;2023-06-10T02:24:45;6.75;;;4.35;;
48014;SDS011;33780;51.034;7.120;2023-06-10T02:27:10;6.90;;;4.57;;
48014;SDS011;33780;51.034;7.120;2023-06-10T02:29:35;7.32;;;4.15;;
48014;SDS011;33780;51.034;7.120;2023-06-10T02:32:02;6.32;;;3.60;;
48014;SDS011;33780;51.034;7.120;2023-06-10T02:34:28;7.75;;;4.20;;
48014;SDS011;33780;51.034;7.120;2023-06-10T02:36:53;6.78;;;4.40;;
48014;SDS011;33780;51.034;7.120;2023-06-10T02:39:19;8.48;;;4.28;;
48014;SDS011;33780;51.034;7.120;2023-06-10T02:41:44;7.43;;;4.05;;
48014;SDS011;33780;51.034;7.120;2023-06-10T02:44:09;5.93;;;4.30;;
48014;SDS011;33780;51.034;7.120;2023-06-10T02:46:35;6.57;;;4.28;;
48014;SDS011;33780;51.034;7.120;2023-06-10T02:49:00;7.95;;;4.18;;
48014;SDS011;33780;51.034;7.120;2023-06-10T02:51:26;6.13;;;3.97;;
48014;SDS011;33780;51.034;7.120;2023-06-10T02:53:52;6.55;;;4.00;;
48014;SDS011;33780;51.034;7.120;2023-06-10T02:56:17;7.05;;;4.05;;
48014;SDS011;33780;51.034;7.120;2023-06-10T02:58:42;7.38;;;4.18;;
48014;SDS011;33780;51.034;7.120;2023-06-10T03:01:07;6.30;;;4.00;;
48014;SDS011;33780;51.034;7.120;2023-06-10T03:03:35;10.63;;;4.15;;
48014;SDS011;33780;51.034;7.120;2023-06-10T03:06:01;6.53;;;4.13;;
48014;SDS011;33780;51.034;7.120;2023-06-10T03:08:27;6.72;;;4.05;;
48014;SDS011;33780;51.034;7.120;2023-06-10T03:10:53;7.93;;;4.05;;
48014;SDS011;33780;51.034;7.120;2023-06-10T03:13:18;7.38;;;4.18;;
48014;SDS011;33780;51.034;7.120;2023-06-10T03:15:43;6.28;;;3.95;;
48014;SDS011;33780;51.034;7.120;2023-06-10T03:18:09;6.43;;;3.83;;
48014;SDS011;33780;51.034;7.120;2023-06-10T03:20:40;9.27;;;4.15;;
48014;SDS011;33780;51.034;7.120;2023-06-10T03:23:06;7.80;;;4.32;;
48014;SDS011;33780;51.034;7.120;2023-06-10T03:25:32;7.53;;;3.78;;
48014;SDS011;33780;51.034;7.120;2023-06-10T03:27:57;6.45;;;4.03;;
48014;SDS011;33780;51.034;7.120;2023-06-10T03:30:22;7.18;;;3.72;;
48014;SDS011;33780;51.034;7.120;2023-06-10T03:32:47;6.90;;;3.90;;
48014;SDS011;33780;51.034;7.120;2023-06-10T03:35:14;5.78;;;3.90;;
48014;SDS011;33780;51.034;7.120;2023-06-10T03:37:39;6.60;;;4.03;;
48014;SDS011;33780;51.034;7.120;2023-06-10T03:40:05;6.95;;;3.88;;
48014;SDS011;33780;51.034;7.120;2023-06-10T03:42:32;7.07;;;4.00;;
48014;SDS011;33780;51.034;7.120;2023-06-10T03:44:57;6.60;;;3.90;;
48014;SDS011;33780;51.034;7.120;2023-06-10T03:47:23;6.15;;;3.67;;
48014;SDS011;33780;51.034;7.120;2023-06-10T03:49:48;6.45;;;3.90;;
48014;SDS011;33780;51.034;7.120;2023-06-10T03:52:13;6.43;;;3.72;;
48014;SDS011;33780;51.034;7.120;2023-06-10T03:54:38;7.13;;;4.13;;
48014;SDS011;33780;51.034;7.120;2023-06-10T03:57:04;6.85;;;4.20;;
48014;SDS011;33780;51.034;7.120;2023-06-10T03:59:30;6.22;;;4.20;;
48014;SDS011;33780;51.034;7.120;2023-06-10T04:01:55;6.25;;;4.18;;
48014;SDS011;33780;51.034;7.120;2023-06-10T04:04:21;6.70;;;4.07;;
48014;SDS011;33780;51.034;7.120;2023-06-10T04:06:48;7.25;;;4.07;;
48014;SDS011;33780;51.034;7.120;2023-06-10T04:09:13;7.78;;;4.05;;
48014;SDS011;33780;51.034;7.120;2023-06-10T04:11:39;6.90;;;3.75;;
48014;SDS011;33780;51.034;7.120;2023-06-10T04:14:04;7.18;;;4.60;;
48014;SDS011;33780;51.034;7.120;2023-06-10T04:16:30;8.27;;;4.13;;
48014;SDS011;33780;51.034;7.120;2023-06-10T04:18:55;6.50;;;3.92;;
48014;SDS011;33780;51.034;7.120;2023-06-10T04:21:20;5.07;;;3.55;;
48014;SDS011;33780;51.034;7.120;2023-06-10T04:23:47;5.25;;;3.70;;
48014;SDS011;33780;51.034;7.120;2023-06-10T04:26:13;6.57;;;3.78;;
48014;SDS011;33780;51.034;7.120;2023-06-10T04:28:39;6.57;;;4.10;;
48014;SDS011;33780;51.034;7.120;2023-06-10T04:31:04;8.82;;;3.67;;
48014;SDS011;33780;51.034;7.120;2023-06-10T04:33:30;5.70;;;3.88;;
48014;SDS011;33780;51.034;7.120;2023-06-10T04:35:56;8.68;;;4.03;;
48014;SDS011;33780;51.034;7.120;2023-06-10T04:38:21;6.50;;;4.25;;
48014;SDS011;33780;51.034;7.120;2023-06-10T04:40:46;10.65;;;4.10;;
48014;SDS011;33780;51.034;7.120;2023-06-10T04:43:12;6.75;;;3.80;;
48014;SDS011;33780;51.034;7.120;2023-06-10T04:45:38;5.93;;;3.90;;
48014;SDS011;33780;51.034;7.120;2023-06-10T04:48:03;8.40;;;4.28;;
48014;SDS011;33780;51.034;7.120;2023-06-10T04:50:28;7.38;;;3.97;;
48014;SDS011;33780;51.034;7.120;2023-06-10T04:52:53;7.63;;;4.43;;
48014;SDS011;33780;51.034;7.120;2023-06-10T04:55:22;7.15;;;3.80;;
48014;SDS011;33780;51.034;7.120;2023-06-10T04:57:47;5.60;;;3.83;;
48014;SDS011;33780;51.034;7.120;2023-06-10T05:00:13;6.63;;;3.72;;
48014;SDS011;33780;51.034;7.120;2023-06-10T05:02:39;6.85;;;4.18;;
48014;SDS011;33780;51.034;7.120;2023-06-10T05:05:04;6.38;;;3.88;;
48014;SDS011;33780;51.034;7.120;2023-06-10T05:07:30;7.38;;;4.18;;
48014;SDS011;33780;51.034;7.120;2023-06-10T05:09:55;6.22;;;4.25;;
48014;SDS011;33780;51.034;7.120;2023-06-10T05:12:20;6.50;;;3.95;;
48014;SDS011;33780;51.034;7.120;2023-06-10T05:14:45;6.35;;;3.95;;
48014;SDS011;33780;51.034;7.120;2023-06-10T05:17:11;5.72;;;3.90;;
48014;SDS011;33780;51.034;7.120;2023-06-10T05:19:37;6.75;;;3.80;;
48014;SDS011;33780;51.034;7.120;2023-06-10T05:22:03;5.38;;;3.55;;
48014;SDS011;33780;51.034;7.120;2023-06-10T05:24:28;6.35;;;3.60;;
48014;SDS011;33780;51.034;7.120;2023-06-10T05:26:54;6.22;;;3.60;;
48014;SDS011;33780;51.034;7.120;2023-06-10T05:29:19;6.85;;;3.72;;
48014;SDS011;33780;51.034;7.120;2023-06-10T05:31:44;5.88;;;3.78;;
48014;SDS011;33780;51.034;7.120;2023-06-10T05:34:10;5.28;;;3.53;;
48014;SDS011;33780;51.034;7.120;2023-06-10T05:36:35;6.10;;;3.40;;
48014;SDS011;33780;51.034;7.120;2023-06-10T05:39:00;4.88;;;3.13;;
48014;SDS011;33780;51.034;7.120;2023-06-10T05:41:25;5.07;;;3.08;;
48014;SDS011;33780;51.034;7.120;2023-06-10T05:43:51;5.50;;;3.67;;
48014;SDS011;33780;51.034;7.120;2023-06-10T05:46:16;5.97;;;3.42;;
48014;SDS011;33780;51.034;7.120;2023-06-10T05:48:41;4.43;;;3.00;;
48014;SDS011;33780;51.034;7.120;2023-06-10T05:51:07;6.00;;;3.30;;
48014;SDS011;33780;51.034;7.120;2023-06-10T05:53:32;6.45;;;3.65;;
48014;SDS011;33780;51.034;7.120;2023-06-10T05:55:57;4.88;;;3.08;;
48014;SDS011;33780;51.034;7.120;2023-06-10T05:58:23;6.05;;;3.60;;
48014;SDS011;33780;51.034;7.120;2023-06-10T06:00:49;6.22;;;3.60;;
48014;SDS011;33780;51.034;7.120;2023-06-10T06:03:15;6.13;;;3.55;;
48014;SDS011;33780;51.034;7.120;2023-06-10T06:05:40;6.07;;;3.55;;
48014;SDS011;33780;51.034;7.120;2023-06-10T06:08:06;6.38;;;3.75;;
48014;SDS011;33780;51.034;7.120;2023-06-10T06:10:32;5.88;;;3.20;;
48014;SDS011;33780;51.034;7.120;2023-06-10T06:12:58;5.28;;;3.40;;
48014;SDS011;33780;51.034;7.120;2023-06-10T06:15:24;6.25;;;3.58;;
48014;SDS011;33780;51.034;7.120;2023-06-10T06:17:49;5.03;;;3.30;;
48014;SDS011;33780;51.034;7.120;2023-06-10T06:20:17;5.22;;;3.00;;
48014;SDS011;33780;51.034;7.120;2023-06-10T06:22:43;5.10;;;3.42;;
48014;SDS011;33780;51.034;7.120;2023-06-10T06:25:08;6.82;;;3.45;;
48014;SDS011;33780;51.034;7.120;2023-06-10T06:27:33;6.88;;;3.60;;
48014;SDS011;33780;51.034;7.120;2023-06-10T06:29:58;7.38;;;3.97;;
48014;SDS011;33780;51.034;7.120;2023-06-10T06:32:24;5.45;;;3.50;;
48014;SDS011;33780;51.034;7.120;2023-06-10T06:34:52;6.32;;;3.55;;
48014;SDS011;33780;51.034;7.120;2023-06-10T06:37:20;5.18;;;3.38;;
48014;SDS011;33780;51.034;7.120;2023-06-10T06:39:47;5.75;;;3.72;;
48014;SDS011;33780;51.034;7.120;2023-06-10T06:42:12;4.72;;;3.30;;
48014;SDS011;33780;51.034;7.120;2023-06-10T06:44:38;6.65;;;4.03;;
48014;SDS011;33780;51.034;7.120;2023-06-10T06:47:03;6.57;;;3.83;;
48014;SDS011;33780;51.034;7.120;2023-06-10T06:49:28;5.70;;;3.50;;
48014;SDS011;33780;51.034;7.120;2023-06-10T06:51:54;6.72;;;3.50;;
48014;SDS011;33780;51.034;7.120;2023-06-10T06:54:19;5.15;;;3.40;;
48014;SDS011;33780;51.034;7.120;2023-06-10T06:56:45;6.30;;;3.55;;
48014;SDS011;33780;51.034;7.120;2023-06-10T06:59:10;5.72;;;3.65;;
48014;SDS011;33780;51.034;7.120;2023-06-10T07:01:36;6.57;;;3.33;;
48014;SDS011;33780;51.034;7.120;2023-06-10T07:04:01;6.07;;;3.85;;
48014;SDS011;33780;51.034;7.120;2023-06-10T07:06:26;6.03;;;3.42;;
48014;SDS011;33780;51.034;7.120;2023-06-10T07:08:51;5.05;;;3.20;;
48014;SDS011;33780;51.034;7.120;2023-06-10T07:11:17;5.13;;;3.30;;
48014;SDS011;33780;51.034;7.120;2023-06-10T07:13:42;4.93;;;3.05;;
48014;SDS011;33780;51.034;7.120;2023-06-10T07:16:08;4.82;;;3.10;;
48014;SDS011;33780;51.034;7.120;2023-06-10T07:18:33;6.35;;;3.33;;
48014;SDS011;33780;51.034;7.120;2023-06-10T07:20:58;5.53;;;2.92;;
48014;SDS011;33780;51.034;7.120;2023-06-10T07:23:23;4.93;;;3.20;;
48014;SDS011;33780;51.034;7.120;2023-06-10T07:25:49;4.72;;;2.90;;
48014;SDS011;33780;51.034;7.120;2023-06-10T07:28:14;10.27;;;3.58;;
48014;SDS011;33780;51.034;7.120;2023-06-10T07:30:39;5.82;;;3.50;;
48014;SDS011;33780;51.034;7.120;2023-06-10T07:33:05;4.63;;;3.25;;
48014;SDS011;33780;51.034;7.120;2023-06-10T07:35:32;5.13;;;3.13;;
48014;SDS011;33780;51.034;7.120;2023-06-10T07:37:57;6.07;;;3.15;;
48014;SDS011;33780;51.034;7.120;2023-06-10T07:40:23;6.80;;;3.60;;
48014;SDS011;33780;51.034;7.120;2023-06-10T07:42:49;5.32;;;3.47;;
48014;SDS011;33780;51.034;7.120;2023-06-10T07:45:14;5.03;;;3.15;;
48014;SDS011;33780;51.034;7.120;2023-06-10T07:47:39;5.03;;;3.20;;
48014;SDS011;33780;51.034;7.120;2023-06-10T07:50:05;4.28;;;2.95;;
48014;SDS011;33780;51.034;7.120;2023-06-10T07:52:30;7.45;;;3.38;;
48014;SDS011;33780;51.034;7.120;2023-06-10T07:54:56;5.43;;;3.45;;
48014;SDS011;33780;51.034;7.120;2023-06-10T07:57:21;4.93;;;3.10;;
48014;SDS011;33780;51.034;7.120;2023-06-10T07:59:46;5.32;;;3.72;;
48014;SDS011;33780;51.034;7.120;2023-06-10T08:02:12;6.53;;;3.53;;
48014;SDS011;33780;51.034;7.120;2023-06-10T08:04:37;4.88;;;3.60;;
48014;SDS011;33780;51.034;7.120;2023-06-10T08:07:02;6.25;;;3.30;;
48014;SDS011;33780;51.034;7.120;2023-06-10T08:09:28;5.72;;;3.47;;
48014;SDS011;33780;51.034;7.120;2023-06-10T08:11:53;4.72;;;2.88;;
48014;SDS011;33780;51.034;7.120;2023-06-10T08:14:20;6.03;;;3.65;;
48014;SDS011;33780;51.034;7.120;2023-06-10T08:16:45;6.47;;;3.70;;
48014;SDS011;33780;51.034;7.120;2023-06-10T08:19:11;5.32;;;3.63;;
48014;SDS011;33780;51.034;7.120;2023-06-10T08:21:36;4.90;;;3.53;;
48014;SDS011;33780;51.034;7.120;2023-06-10T08:24:05;7.18;;;3.67;;
48014;SDS011;33780;51.034;7.120;2023-06-10T08:26:31;6.03;;;3.60;;
48014;SDS011;33780;51.034;7.120;2023-06-10T08:28:57;6.60;;;3.80;;
48014;SDS011;33780;51.034;7.120;2023-06-10T08:31:22;6.85;;;3.80;;
48014;SDS011;33780;51.034;7.120;2023-06-10T08:33:50;5.63;;;3.58;;
48014;SDS011;33780;51.034;7.120;2023-06-10T08:36:16;4.80;;;3.30;;
48014;SDS011;33780;51.034;7.120;2023-06-10T08:38:41;5.55;;;3.63;;
48014;SDS011;33780;51.034;7.120;2023-06-10T08:41:06;6.95;;;4.10;;
48014;SDS011;33780;51.034;7.120;2023-06-10T08:43:45;6.43;;;4.00;;
48014;SDS011;33780;51.034;7.120;2023-06-10T08:46:16;6.40;;;4.20;;
48014;SDS011;33780;51.034;7.120;2023-06-10T08:48:44;7.25;;;3.70;;
48014;SDS011;33780;51.034;7.120;2023-06-10T08:51:13;5.28;;;3.45;;
48014;SDS011;33780;51.034;7.120;2023-06-10T08:53:45;5.40;;;3.70;;
48014;SDS011;33780;51.034;7.120;2023-06-10T08:56:18;5.40;;;3.63;;
48014;SDS011;33780;51.034;7.120;2023-06-10T08:58:44;5.95;;;3.67;;
48014;SDS011;33780;51.034;7.120;2023-06-10T09:01:10;6.50;;;4.15;;
48014;SDS011;33780;51.034;7.120;2023-06-10T09:03:37;5.25;;;3.47;;
48014;SDS011;33780;51.034;7.120;2023-06-10T09:06:04;5.68;;;3.67;;
48014;SDS011;33780;51.034;7.120;2023-06-10T09:08:32;5.95;;;3.70;;
48014;SDS011;33780;51.034;7.120;2023-06-10T09:10:59;6.55;;;3.63;;
48014;SDS011;33780;51.034;7.120;2023-06-10T09:13:25;5.05;;;3.40;;
48014;SDS011;33780;51.034;7.120;2023-06-10T09:15:50;8.18;;;4.05;;
48014;SDS011;33780;51.034;7.120;2023-06-10T09:18:16;5.10;;;3.67;;
48014;SDS011;33780;51.034;7.120;2023-06-10T09:20:42;5.10;;;3.60;;
48014;SDS011;33780;51.034;7.120;2023-06-10T09:23:08;5.80;;;3.80;;
48014;SDS011;33780;51.034;7.120;2023-06-10T09:25:35;6.03;;;3.85;;
48014;SDS011;33780;51.034;7.120;2023-06-10T09:28:02;6.10;;;3.70;;
48014;SDS011;33780;51.034;7.120;2023-06-10T09:30:32;6.22;;;3.78;;
48014;SDS011;33780;51.034;7.120;2023-06-10T09:33:00;6.65;;;4.07;;
48014;SDS011;33780;51.034;7.120;2023-06-10T09:35:28;6.22;;;4.00;;
48014;SDS011;33780;51.034;7.120;2023-06-10T09:37:55;5.05;;;3.58;;
48014;SDS011;33780;51.034;7.120;2023-06-10T09:40:21;6.45;;;4.35;;
48014;SDS011;33780;51.034;7.120;2023-06-10T09:42:49;5.32;;;3.70;;
48014;SDS011;33780;51.034;7.120;2023-06-10T09:45:20;5.22;;;3.53;;
48014;SDS011;33780;51.034;7.120;2023-06-10T09:47:46;5.75;;;3.72;;
48014;SDS011;33780;51.034;7.120;2023-06-10T09:50:12;4.97;;;3.60;;
48014;SDS011;33780;51.034;7.120;2023-06-10T09:52:38;4.60;;;3.50;;
48014;SDS011;33780;51.034;7.120;2023-06-10T09:55:04;5.25;;;3.58;;
48014;SDS011;33780;51.034;7.120;2023-06-10T09:57:33;7.43;;;3.78;;
48014;SDS011;33780;51.034;7.120;2023-06-10T10:00:03;4.93;;;3.58;;
48014;SDS011;33780;51.034;7.120;2023-06-10T10:02:33;7.25;;;4.13;;
48014;SDS011;33780;51.034;7.120;2023-06-10T10:05:09;9.00;;;3.65;;
48014;SDS011;33780;51.034;7.120;2023-06-10T10:07:34;5.10;;;3.50;;
48014;SDS011;33780;51.034;7.120;2023-06-10T10:10:00;5.88;;;3.58;;
48014;SDS011;33780;51.034;7.120;2023-06-10T10:12:25;6.28;;;3.50;;
48014;SDS011;33780;51.034;7.120;2023-06-10T10:14:51;5.63;;;3.25;;
48014;SDS011;33780;51.034;7.120;2023-06-10T10:17:17;6.80;;;4.00;;
48014;SDS011;33780;51.034;7.120;2023-06-10T10:22:33;5.20;;;3.85;;
48014;SDS011;33780;51.034;7.120;2023-06-10T10:25:49;5.05;;;3.45;;
48014;SDS011;33780;51.034;7.120;2023-06-10T10:27:56;6.20;;;3.80;;
48014;SDS011;33780;51.034;7.120;2023-06-10T10:30:26;7.93;;;3.80;;
48014;SDS011;33780;51.034;7.120;2023-06-10T10:32:57;4.93;;;3.63;;
48014;SDS011;33780;51.034;7.120;2023-06-10T10:35:23;5.57;;;3.53;;
48014;SDS011;33780;51.034;7.120;2023-06-10T10:37:51;7.50;;;3.60;;
48014;SDS011;33780;51.034;7.120;2023-06-10T10:40:18;5.30;;;3.90;;
48014;SDS011;33780;51.034;7.120;2023-06-10T10:42:45;4.57;;;3.38;;
48014;SDS011;33780;51.034;7.120;2023-06-10T10:45:12;4.30;;;3.38;;
48014;SDS011;33780;51.034;7.120;2023-06-10T10:47:38;6.88;;;3.60;;
48014;SDS011;33780;51.034;7.120;2023-06-10T10:50:25;5.80;;;3.85;;
48014;SDS011;33780;51.034;7.120;2023-06-10T10:55:21;5.35;;;3.22;;
48014;SDS011;33780;51.034;7.120;2023-06-10T10:58:03;5.05;;;3.70;;
48014;SDS011;33780;51.034;7.120;2023-06-10T11:02:57;5.72;;;3.90;;
48014;SDS011;33780;51.034;7.120;2023-06-10T11:05:33;4.80;;;3.60;;
48014;SDS011;33780;51.034;7.120;2023-06-10T11:08:02;4.70;;;3.40;;
48014;SDS011;33780;51.034;7.120;2023-06-10T11:10:29;4.70;;;3.60;;
48014;SDS011;33780;51.034;7.120;2023-06-10T11:12:56;5.63;;;3.85;;
48014;SDS011;33780;51.034;7.120;2023-06-10T11:15:22;4.45;;;3.30;;
48014;SDS011;33780;51.034;7.120;2023-06-10T11:18:13;5.30;;;3.78;;
48014;SDS011;33780;51.034;7.120;2023-06-10T11:21:03;5.15;;;3.65;;
48014;SDS011;33780;51.034;7.120;2023-06-10T11:26:14;5.68;;;3.58;;
48014;SDS011;33780;51.034;7.120;2023-06-10T11:29:01;5.68;;;3.88;;
48014;SDS011;33780;51.034;7.120;2023-06-10T11:31:26;6.00;;;3.75;;
48014;SDS011;33780;51.034;7.120;2023-06-10T11:33:53;6.70;;;3.90;;
48014;SDS011;33780;51.034;7.120;2023-06-10T11:36:20;5.40;;;3.78;;
48014;SDS011;33780;51.034;7.120;2023-06-10T11:38:46;5.97;;;3.42;;
48014;SDS011;33780;51.034;7.120;2023-06-10T11:41:11;5.65;;;3.83;;
48014;SDS011;33780;51.034;7.120;2023-06-10T11:43:44;5.65;;;3.80;;
48014;SDS011;33780;51.034;7.120;2023-06-10T11:46:10;6.30;;;3.72;;
48014;SDS011;33780;51.034;7.120;2023-06-10T11:48:36;6.88;;;4.00;;
48014;SDS011;33780;51.034;7.120;2023-06-10T11:51:08;4.70;;;3.60;;
48014;SDS011;33780;51.034;7.120;2023-06-10T11:53:34;6.43;;;4.20;;
48014;SDS011;33780;51.034;7.120;2023-06-10T11:56:00;5.55;;;3.50;;
48014;SDS011;33780;51.034;7.120;2023-06-10T11:58:25;5.53;;;3.78;;
48014;SDS011;33780;51.034;7.120;2023-06-10T12:00:51;6.15;;;4.10;;
48014;SDS011;33780;51.034;7.120;2023-06-10T12:03:18;6.88;;;3.83;;
48014;SDS011;33780;51.034;7.120;2023-06-10T12:06:00;6.35;;;4.10;;
48014;SDS011;33780;51.034;7.120;2023-06-10T12:08:27;6.80;;;3.92;;
48014;SDS011;33780;51.034;7.120;2023-06-10T12:10:53;5.45;;;3.72;;
48014;SDS011;33780;51.034;7.120;2023-06-10T12:13:19;5.40;;;3.65;;
48014;SDS011;33780;51.034;7.120;2023-06-10T12:15:44;6.07;;;3.85;;
48014;SDS011;33780;51.034;7.120;2023-06-10T12:20:48;6.30;;;3.95;;
48014;SDS011;33780;51.034;7.120;2023-06-10T12:23:15;5.15;;;3.70;;
48014;SDS011;33780;51.034;7.120;2023-06-10T12:25:51;5.53;;;4.05;;
48014;SDS011;33780;51.034;7.120;2023-06-10T12:28:25;6.18;;;3.55;;
48014;SDS011;33780;51.034;7.120;2023-06-10T12:30:52;5.50;;;3.25;;
48014;SDS011;33780;51.034;7.120;2023-06-10T12:33:31;5.25;;;3.42;;
48014;SDS011;33780;51.034;7.120;2023-06-10T12:35:56;6.80;;;3.72;;
48014;SDS011;33780;51.034;7.120;2023-06-10T12:38:22;6.53;;;3.80;;
48014;SDS011;33780;51.034;7.120;2023-06-10T12:40:49;6.50;;;3.60;;
48014;SDS011;33780;51.034;7.120;2023-06-10T12:43:22;4.32;;;3.30;;
48014;SDS011;33780;51.034;7.120;2023-06-10T12:45:48;5.32;;;3.50;;
48014;SDS011;33780;51.034;7.120;2023-06-10T12:48:18;5.57;;;3.60;;
48014;SDS011;33780;51.034;7.120;2023-06-10T12:50:46;5.18;;;3.50;;
48014;SDS011;33780;51.034;7.120;2023-06-10T12:53:16;4.85;;;3.42;;
48014;SDS011;33780;51.034;7.120;2023-06-10T12:55:41;6.72;;;3.33;;
48014;SDS011;33780;51.034;7.120;2023-06-10T12:58:06;5.40;;;3.60;;
48014;SDS011;33780;51.034;7.120;2023-06-10T13:00:32;4.75;;;3.53;;
48014;SDS011;33780;51.034;7.120;2023-06-10T13:03:00;6.63;;;3.75;;
48014;SDS011;33780;51.034;7.120;2023-06-10T13:05:26;4.72;;;3.20;;
48014;SDS011;33780;51.034;7.120;2023-06-10T13:07:52;5.60;;;3.35;;
48014;SDS011;33780;51.034;7.120;2023-06-10T13:10:18;5.13;;;3.50;;
48014;SDS011;33780;51.034;7.120;2023-06-10T13:12:43;4.93;;;3.75;;
48014;SDS011;33780;51.034;7.120;2023-06-10T13:15:09;4.78;;;3.38;;
48014;SDS011;33780;51.034;7.120;2023-06-10T13:17:35;5.00;;;3.50;;
48014;SDS011;33780;51.034;7.120;2023-06-10T13:20:04;5.00;;;3.40;;
48014;SDS011;33780;51.034;7.120;2023-06-10T13:22:31;3.95;;;2.90;;
48014;SDS011;33780;51.034;7.120;2023-06-10T13:24:58;4.53;;;3.15;;
48014;SDS011;33780;51.034;7.120;2023-06-10T13:27:24;5.07;;;3.40;;
48014;SDS011;33780;51.034;7.120;2023-06-10T13:29:49;5.40;;;3.35;;
48014;SDS011;33780;51.034;7.120;2023-06-10T13:32:15;5.40;;;3.20;;
48014;SDS011;33780;51.034;7.120;2023-06-10T13:34:40;4.72;;;3.17;;
48014;SDS011;33780;51.034;7.120;2023-06-10T13:37:05;4.60;;;3.08;;
48014;SDS011;33780;51.034;7.120;2023-06-10T13:39:31;3.83;;;2.70;;
48014;SDS011;33780;51.034;7.120;2023-06-10T13:41:56;5.95;;;3.10;;
48014;SDS011;33780;51.034;7.120;2023-06-10T13:44:21;5.30;;;3.10;;
48014;SDS011;33780;51.034;7.120;2023-06-10T13:46:46;4.60;;;3.17;;
48014;SDS011;33780;51.034;7.120;2023-06-10T13:49:12;4.50;;;3.00;;
48014;SDS011;33780;51.034;7.120;2023-06-10T13:51:37;4.63;;;2.97;;
48014;SDS011;33780;51.034;7.120;2023-06-10T13:54:02;4.47;;;3.15;;
48014;SDS011;33780;51.034;7.120;2023-06-10T13:56:27;4.53;;;3.40;;
48014;SDS011;33780;51.034;7.120;2023-06-10T13:58:53;5.80;;;3.10;;
48014;SDS011;33780;51.034;7.120;2023-06-10T14:01:18;4.50;;;2.85;;
48014;SDS011;33780;51.034;7.120;2023-06-10T14:03:44;5.38;;;3.25;;
48014;SDS011;33780;51.034;7.120;2023-06-10T14:06:09;4.55;;;3.15;;
48014;SDS011;33780;51.034;7.120;2023-06-10T14:08:37;3.97;;;3.17;;
48014;SDS011;33780;51.034;7.120;2023-06-10T14:11:03;4.38;;;3.05;;
48014;SDS011;33780;51.034;7.120;2023-06-10T14:13:28;4.00;;;2.97;;
48014;SDS011;33780;51.034;7.120;2023-06-10T14:15:54;4.25;;;2.85;;
48014;SDS011;33780;51.034;7.120;2023-06-10T14:18:19;5.65;;;3.28;;
48014;SDS011;33780;51.034;7.120;2023-06-10T14:20:45;4.55;;;3.30;;
48014;SDS011;33780;51.034;7.120;2023-06-10T14:23:10;5.15;;;3.17;;
48014;SDS011;33780;51.034;7.120;2023-06-10T14:25:35;5.43;;;3.00;;
48014;SDS011;33780;51.034;7.120;2023-06-10T14:28:01;4.80;;;2.97;;
48014;SDS011;33780;51.034;7.120;2023-06-10T14:30:26;4.35;;;3.10;;
48014;SDS011;33780;51.034;7.120;2023-06-10T14:32:51;5.10;;;3.08;;
48014;SDS011;33780;51.034;7.120;2023-06-10T14:35:16;4.38;;;3.20;;
48014;SDS011;33780;51.034;7.120;2023-06-10T14:37:42;4.10;;;2.85;;
48014;SDS011;33780;51.034;7.120;2023-06-10T14:40:07;5.53;;;3.15;;
48014;SDS011;33780;51.034;7.120;2023-06-10T14:42:33;6.47;;;3.28;;
48014;SDS011;33780;51.034;7.120;2023-06-10T14:44:58;4.38;;;3.10;;
48014;SDS011;33780;51.034;7.120;2023-06-10T14:47:25;4.85;;;3.00;;
48014;SDS011;33780;51.034;7.120;2023-06-10T14:49:50;3.97;;;3.30;;
48014;SDS011;33780;51.034;7.120;2023-06-10T14:52:16;5.68;;;3.30;;
48014;SDS011;33780;51.034;7.120;2023-06-10T14:54:41;4.47;;;3.50;;
48014;SDS011;33780;51.034;7.120;2023-06-10T14:57:06;4.55;;;3.60;;
48014;SDS011;33780;51.034;7.120;2023-06-10T14:59:32;6.30;;;3.35;;